Share

Isla Martín García, Argentina

san isidro (IBUENOSA193) Alt 69 ft | 34.47 °S, 58.52 °W | Change Station

Current weather conditions updated 2 minutes ago

Clear
Despejado
56.3 ° F
Sensación térmica 56.3 ° F
N
3.2
Viento Variable Viento desde Sur
Gusts 7.6 mph
Amanecer 7:18 AM
Atardecer 6:26 PM
Luna Gibosa menguante

Hoy se prevé un día Mucho más frío que ayer.

Presión 30.04 pul
Visibilidad -9999.0 Millas
Nubes
Punto de rocío 42 ° F
Humedad 59%
Precipitaciones 0.00 pul
Espesor de la nieve No disponible.
UV No disponible.
Polen No disponible.
Calidad del aire No disponible.
Flu Activity No disponible.
METAR SADF 180500Z 18003KT CAVOK 13/06 Q1017

More Conditions Fewer Conditions

Presión 30.04 pul
Visibilidad -9999.0 Millas
Nubes
Punto de rocío 42 ° F
Humedad 59%
Precipitaciones 0.00 pul
Espesor de la nieve No disponible.
UV No disponible.
Polen No disponible.
Calidad del aire No disponible.
Flu Activity No disponible.
METAR SADF 180500Z 18003KT CAVOK 13/06 Q1017

More Conditions Fewer Conditions

10-Day Forecast

Almanac

Astronomía

Apr. 18, 2014 Salida Puesta
Hora real 7:18 AM ART 6:26 PM ART
Crepúsculo civil 6:52 AM ART 6:51 PM ART
Crepúsculo náutico 6:23 AM ART 7:20 PM ART
Crepúsculo astronómico 5:54 AM ART 7:49 PM ART
Luna 9:09 PM ART 10:29 AM ART
Horas de luz 11h 58m
Horas de luz
11h 07m
Tomorrow will be 1m 57s shorter.
Gibosa menguante, 90% of the Moon is Illuminated
Hoy
Gibosa menguante
Abr 22
Cuarto menguante
Abr 29
Nueva
May 6
Cuarto creciente
May 14
Luna llena

Extremos de ayer

Máximos del país Bajas del país

Community

  • SUNRISE THROUGH THE TREES.
    SUNRISE THROUGH THE TREES.
  • Dog Wood Blossoms
    Dog Wood Blossoms
  • Morning Light
    Morning Light
  • New Day
    New Day
  • Lake Michigan Sunrise
    Lake Michigan Sunrise

WunderPhotos

Upload Photos

1,702,263 ¡fotos cargadas!

WunderBlogs® & News

Nearby

Calidad del aire

Not available.

Grosos de nieve

Not available.

Temperaturas de aguas costeras

Lugar Temperatura
Sin partes meteorológicos de las estaciones

Actividad de terremotos

Ciudad Distance Mag. Tiempo y dato
No hay informes recientes de la actividad sísmica.
Magnitud mínima muestra es 2,5.

Estaciones meteorológicas cercanas

Ubicación de la estación Temp. Punto de rocío Humedad Viento Precip. Alt Actualizado Tipo
san isidro, San Isidro 56.3 ° F 42 ° F 59% Sur  a  3.2 mph 0.00 pul / hr 69 ft 2:30 AM ART Normal

Show More Stations Show Fewer Stations

What do you think?

We're not finished. Please let us know what you like, what you don't like, and what you are still missing.